createdAt,value
2019-04-30T00:00:18.449Z,47.35
2019-04-30T00:03:11.465Z,48.17
2019-04-30T00:05:41.697Z,47.67
2019-04-30T00:08:15.897Z,49.67
2019-04-30T00:10:46.844Z,48.83
2019-04-30T00:13:20.947Z,50.67
2019-04-30T00:15:52.875Z,51.37
2019-04-30T00:18:25.711Z,50.17
2019-04-30T00:20:57.775Z,51.28
2019-04-30T00:23:30.918Z,50.05
2019-04-30T00:26:06.022Z,49.33
2019-04-30T00:28:39.376Z,49.93
2019-04-30T00:31:09.616Z,48.90
2019-04-30T00:33:41.687Z,49.25
2019-04-30T00:36:14.814Z,48.92
2019-04-30T00:38:47.257Z,47.53
2019-04-30T00:41:19.333Z,42.88
2019-04-30T00:43:51.175Z,40.65
2019-04-30T00:46:24.920Z,41.65
2019-04-30T00:49:08.764Z,42.80
2019-04-30T00:51:30.413Z,38.65
2019-04-30T00:54:02.377Z,38.73
2019-04-30T00:56:35.523Z,36.73
2019-04-30T00:59:10.436Z,37.45
2019-04-30T01:01:43.516Z,37.48
2019-04-30T01:04:19.443Z,37.48
2019-04-30T01:06:51.733Z,37.42
2019-04-30T01:09:25.661Z,36.45
2019-04-30T01:11:57.378Z,36.73
2019-04-30T01:14:31.974Z,36.35
2019-04-30T01:17:03.699Z,36.58
2019-04-30T01:19:36.742Z,33.75
2019-04-30T01:22:09.042Z,34.27
2019-04-30T01:24:41.178Z,35.63
2019-04-30T01:27:13.166Z,35.17
2019-04-30T01:29:45.467Z,38.02
2019-04-30T01:32:20.822Z,35.95
2019-04-30T01:34:53.736Z,38.85
2019-04-30T01:37:29.581Z,38.95
2019-04-30T01:39:58.918Z,38.30
2019-04-30T01:42:32.105Z,37.93
2019-04-30T01:45:04.657Z,36.35
2019-04-30T01:47:36.515Z,38.50
2019-04-30T01:50:09.295Z,37.75
2019-04-30T01:52:53.589Z,38.42
2019-04-30T01:55:36.295Z,36.40
2019-04-30T01:58:29.951Z,37.50
2019-04-30T02:01:01.489Z,38.00
2019-04-30T02:03:33.563Z,39.67
2019-04-30T02:06:05.410Z,40.05
2019-04-30T02:08:37.075Z,37.73
2019-04-30T02:11:09.122Z,37.28
2019-04-30T02:13:41.191Z,36.55
2019-04-30T02:16:13.461Z,36.93
2019-04-30T02:18:45.650Z,37.80
2019-04-30T02:21:19.500Z,37.88
2019-04-30T02:23:51.504Z,36.85
2019-04-30T02:26:23.791Z,39.03
2019-04-30T02:28:55.752Z,36.40
2019-04-30T02:31:30.757Z,33.67
2019-04-30T02:34:05.627Z,34.50
2019-04-30T02:36:49.975Z,33.10
2019-04-30T02:39:21.734Z,36.40
2019-04-30T02:41:54.692Z,34.43
2019-04-30T02:44:29.253Z,36.33
2019-04-30T02:47:01.501Z,36.53
2019-04-30T02:49:33.759Z,36.00
2019-04-30T02:52:09.104Z,35.05
2019-04-30T02:54:43.533Z,34.98
2019-04-30T02:57:15.303Z,35.17
2019-04-30T03:00:09.700Z,33.23
2019-04-30T03:02:40.369Z,34.43
2019-04-30T03:05:14.110Z,35.98
2019-04-30T03:07:45.888Z,35.90
2019-04-30T03:10:19.818Z,34.03
2019-04-30T03:12:51.649Z,34.92
2019-04-30T03:15:23.502Z,34.85
2019-04-30T03:17:57.081Z,34.90
2019-04-30T03:20:47.443Z,34.25
2019-04-30T03:23:20.463Z,33.92
2019-04-30T03:25:52.344Z,35.73
2019-04-30T03:28:24.310Z,36.25
2019-04-30T03:30:57.947Z,36.53
2019-04-30T03:33:32.572Z,34.53
2019-04-30T03:36:03.351Z,34.55
2019-04-30T03:38:35.412Z,39.13
2019-04-30T03:41:09.702Z,37.90
2019-04-30T03:43:41.413Z,36.85
2019-04-30T03:46:13.466Z,34.50
2019-04-30T03:48:45.685Z,34.35
2019-04-30T03:51:19.904Z,34.13
2019-04-30T03:53:51.408Z,33.35
2019-04-30T03:56:24.162Z,31.87
2019-04-30T03:58:55.884Z,31.20
2019-04-30T04:01:29.561Z,31.15
2019-04-30T04:04:10.129Z,32.23
2019-04-30T04:06:46.208Z,32.38
2019-04-30T04:09:39.963Z,30.37
2019-04-30T04:12:24.894Z,31.40
2019-04-30T04:14:57.050Z,32.98
2019-04-30T04:17:31.464Z,31.85
2019-04-30T04:20:02.633Z,33.55
2019-04-30T04:22:34.484Z,34.83
2019-04-30T04:25:12.633Z,36.30
2019-04-30T04:27:40.683Z,41.02
2019-04-30T04:30:12.960Z,38.73
2019-04-30T04:32:44.869Z,37.35
2019-04-30T04:35:19.503Z,37.58
2019-04-30T04:37:50.551Z,40.23
2019-04-30T04:40:22.410Z,36.28
2019-04-30T04:42:54.478Z,40.50
2019-04-30T04:45:26.569Z,39.60
2019-04-30T04:48:00.045Z,38.13
2019-04-30T04:50:31.902Z,38.28
2019-04-30T04:53:04.013Z,39.18
2019-04-30T04:55:36.252Z,40.85
2019-04-30T04:58:09.738Z,39.25
2019-04-30T05:00:41.487Z,38.28
2019-04-30T05:03:14.683Z,38.75
2019-04-30T05:05:46.598Z,40.40
2019-04-30T05:08:18.656Z,39.90
2019-04-30T05:10:50.904Z,41.08
2019-04-30T05:13:22.765Z,41.70
2019-04-30T05:15:54.709Z,40.70
2019-04-30T05:18:26.654Z,43.10
2019-04-30T05:20:59.178Z,42.58
2019-04-30T05:23:31.240Z,43.95
2019-04-30T05:26:04.305Z,41.88
2019-04-30T05:28:36.137Z,41.88
2019-04-30T05:31:08.771Z,42.80
2019-04-30T05:33:40.804Z,40.40
2019-04-30T05:36:12.573Z,41.68
2019-04-30T05:38:44.223Z,39.33
2019-04-30T05:41:16.592Z,38.85
2019-04-30T05:43:48.893Z,44.67
2019-04-30T05:46:20.829Z,38.67
2019-04-30T05:48:52.935Z,37.17
2019-04-30T05:51:25.048Z,43.50
2019-04-30T05:53:59.110Z,38.90
2019-04-30T05:56:31.435Z,35.30
2019-04-30T05:59:03.328Z,35.55
2019-04-30T06:01:35.043Z,39.33
2019-04-30T06:04:06.804Z,36.88
2019-04-30T06:06:38.968Z,37.83
2019-04-30T06:09:28.608Z,37.63
2019-04-30T06:11:53.143Z,38.90
2019-04-30T06:14:28.530Z,37.67
2019-04-30T06:17:09.791Z,37.03
2019-04-30T06:19:41.839Z,38.10
2019-04-30T06:22:13.571Z,37.73
2019-04-30T06:24:45.623Z,37.85
2019-04-30T06:27:19.116Z,35.70
2019-04-30T06:29:50.998Z,33.18
2019-04-30T06:32:23.058Z,34.98
2019-04-30T06:34:55.007Z,33.75
2019-04-30T06:37:28.799Z,32.28
2019-04-30T06:40:00.798Z,32.50
2019-04-30T06:42:32.643Z,33.45
2019-04-30T06:45:09.233Z,31.20
2019-04-30T06:47:40.979Z,31.02
2019-04-30T06:50:13.371Z,30.23
2019-04-30T06:52:56.616Z,30.90
2019-04-30T06:55:19.416Z,29.18
2019-04-30T06:57:51.541Z,30.30
2019-04-30T07:00:32.861Z,26.68
2019-04-30T07:02:59.718Z,24.32
2019-04-30T07:05:31.880Z,25.52
2019-04-30T07:08:22.159Z,27.30
2019-04-30T07:11:11.135Z,25.55
2019-04-30T07:13:41.653Z,26.00
2019-04-30T07:16:13.324Z,27.65
2019-04-30T07:18:45.191Z,28.02
2019-04-30T07:21:19.533Z,27.13
2019-04-30T07:23:50.333Z,26.80
2019-04-30T07:26:24.404Z,27.67
2019-04-30T07:28:55.685Z,25.45
2019-04-30T07:31:29.363Z,24.98
2019-04-30T07:34:00.969Z,23.52
2019-04-30T07:36:45.264Z,24.95
2019-04-30T07:39:10.003Z,25.90
2019-04-30T07:41:41.345Z,26.42
2019-04-30T07:44:30.012Z,23.98
2019-04-30T07:46:49.337Z,27.85
2019-04-30T07:49:21.469Z,28.32
2019-04-30T07:51:55.640Z,28.32
2019-04-30T07:54:29.976Z,27.67
2019-04-30T07:57:00.984Z,25.23
2019-04-30T07:59:32.755Z,25.02
2019-04-30T08:02:13.724Z,25.77
2019-04-30T08:04:45.472Z,25.65
2019-04-30T08:07:17.035Z,25.25
2019-04-30T08:09:49.402Z,23.75
2019-04-30T08:12:29.813Z,22.80
2019-04-30T08:14:54.866Z,23.60
2019-04-30T08:17:28.814Z,23.22
2019-04-30T08:20:00.226Z,22.25
2019-04-30T08:22:32.194Z,22.65
2019-04-30T08:25:04.909Z,22.42
2019-04-30T08:27:36.631Z,21.02
2019-04-30T08:30:21.384Z,21.07
2019-04-30T08:32:43.113Z,20.90
2019-04-30T08:35:14.973Z,21.05
2019-04-30T08:37:46.915Z,20.97
2019-04-30T08:40:19.272Z,19.67
2019-04-30T08:42:52.385Z,21.35
2019-04-30T08:45:24.448Z,24.30
2019-04-30T08:47:56.406Z,23.60
2019-04-30T08:50:29.597Z,20.57
2019-04-30T08:53:01.864Z,20.68
2019-04-30T08:55:34.124Z,20.05
2019-04-30T08:58:09.825Z,21.20
2019-04-30T09:00:40.104Z,23.00
2019-04-30T09:03:12.271Z,23.92
2019-04-30T09:05:45.775Z,23.57
2019-04-30T09:08:19.351Z,25.08
2019-04-30T09:10:52.255Z,24.40
2019-04-30T09:13:24.424Z,26.17
2019-04-30T09:15:56.624Z,26.70
2019-04-30T09:18:29.255Z,26.00
2019-04-30T09:21:06.133Z,30.60
2019-04-30T09:23:45.938Z,28.47
2019-04-30T09:26:08.738Z,29.70
2019-04-30T09:28:41.086Z,29.42
2019-04-30T09:31:12.974Z,32.05
2019-04-30T09:33:45.184Z,37.55
2019-04-30T09:36:20.554Z,27.80
2019-04-30T09:38:50.295Z,27.02
2019-04-30T09:41:22.380Z,27.35
2019-04-30T09:43:54.424Z,27.35
2019-04-30T09:46:29.955Z,25.55
2019-04-30T09:49:02.953Z,26.40
2019-04-30T09:51:36.069Z,26.68
2019-04-30T09:54:11.921Z,25.23
2019-04-30T09:56:42.020Z,24.10
2019-04-30T09:59:13.874Z,25.55
2019-04-30T10:01:46.040Z,25.97
2019-04-30T10:04:20.186Z,26.05
2019-04-30T10:06:51.392Z,26.23
2019-04-30T10:09:23.464Z,24.75
2019-04-30T10:11:57.070Z,25.50
2019-04-30T10:14:28.656Z,24.85
2019-04-30T10:17:02.424Z,23.55
2019-04-30T10:19:34.137Z,23.32
2019-04-30T10:22:08.849Z,24.07
2019-04-30T10:24:40.875Z,22.45
2019-04-30T10:27:13.612Z,22.17
2019-04-30T10:29:45.407Z,22.67
2019-04-30T10:32:18.699Z,22.70
2019-04-30T10:34:50.499Z,22.45
2019-04-30T10:37:22.726Z,21.77
2019-04-30T10:39:54.835Z,22.02
2019-04-30T10:42:28.676Z,25.08
2019-04-30T10:45:00.375Z,24.25
2019-04-30T10:47:32.834Z,27.25
2019-04-30T10:50:07.051Z,23.70
2019-04-30T10:52:39.398Z,24.57
2019-04-30T10:55:11.455Z,25.02
2019-04-30T10:57:43.180Z,23.73
2019-04-30T11:00:16.046Z,23.02
2019-04-30T11:02:49.529Z,24.32
2019-04-30T11:05:21.440Z,23.42
2019-04-30T11:07:53.384Z,26.52
2019-04-30T11:10:25.411Z,25.75
2019-04-30T11:12:57.141Z,25.62
2019-04-30T11:15:29.320Z,25.75
2019-04-30T11:18:01.561Z,24.92
2019-04-30T11:20:33.729Z,25.68
2019-04-30T11:23:14.314Z,25.37
2019-04-30T11:25:41.270Z,25.97
2019-04-30T11:28:13.338Z,24.27
2019-04-30T11:30:46.053Z,31.17
2019-04-30T11:33:18.166Z,25.75
2019-04-30T11:36:01.695Z,25.08
2019-04-30T11:38:23.875Z,29.45
2019-04-30T11:40:56.102Z,42.08
2019-04-30T11:43:29.472Z,24.30
2019-04-30T11:46:25.379Z,24.15
2019-04-30T11:48:58.725Z,24.07
2019-04-30T11:51:30.395Z,23.42
2019-04-30T11:54:02.488Z,23.73
2019-04-30T11:56:34.247Z,23.65
2019-04-30T11:59:06.085Z,22.45
2019-04-30T12:01:38.857Z,22.55
2019-04-30T12:04:10.550Z,22.17
2019-04-30T12:06:42.690Z,28.85
2019-04-30T12:09:20.132Z,23.27
2019-04-30T12:11:52.255Z,22.85
2019-04-30T12:14:24.215Z,23.42
2019-04-30T12:16:56.294Z,22.13
2019-04-30T12:19:28.645Z,22.27
2019-04-30T12:22:00.552Z,21.60
2019-04-30T12:24:32.373Z,21.30
2019-04-30T12:27:04.486Z,21.68
2019-04-30T12:29:36.681Z,20.50
2019-04-30T12:32:08.669Z,22.07
2019-04-30T12:34:40.621Z,21.90
2019-04-30T12:37:12.576Z,22.22
2019-04-30T12:39:44.754Z,20.97
2019-04-30T12:42:18.667Z,20.80
2019-04-30T12:44:51.630Z,21.12
2019-04-30T12:47:23.928Z,22.07
2019-04-30T12:50:09.601Z,21.27
2019-04-30T12:52:45.952Z,20.92
2019-04-30T12:55:19.958Z,20.17
2019-04-30T12:57:58.883Z,20.30
2019-04-30T13:00:29.358Z,20.52
2019-04-30T13:03:01.232Z,19.92
2019-04-30T13:05:33.257Z,18.65
2019-04-30T13:08:05.702Z,18.70
2019-04-30T13:10:38.070Z,18.27
2019-04-30T13:13:10.818Z,19.27
2019-04-30T13:15:42.844Z,18.12
2019-04-30T13:18:14.997Z,27.95
2019-04-30T13:20:48.817Z,20.00
2019-04-30T13:23:20.689Z,21.95
2019-04-30T13:25:52.841Z,17.52
2019-04-30T13:28:26.120Z,18.65
2019-04-30T13:30:59.313Z,16.62
2019-04-30T13:33:42.047Z,17.60
2019-04-30T13:36:14.088Z,17.30
2019-04-30T13:38:52.383Z,16.87
2019-04-30T13:41:31.531Z,16.80
2019-04-30T13:44:04.933Z,17.32
